createdAt,value
2022-12-25T00:00:34.494Z,7.28
2022-12-25T00:03:36.816Z,7.75
2022-12-25T00:06:38.927Z,8.07
2022-12-25T00:09:41.059Z,8.55
2022-12-25T00:12:43.133Z,7.50
2022-12-25T00:15:45.109Z,9.43
2022-12-25T00:18:47.549Z,8.20
2022-12-25T00:21:49.587Z,8.85
2022-12-25T00:24:51.609Z,7.70
2022-12-25T00:27:53.591Z,7.73
2022-12-25T00:30:55.652Z,7.82
2022-12-25T00:33:58.030Z,7.28
2022-12-25T00:37:00.035Z,7.77
2022-12-25T00:40:02.017Z,6.55
2022-12-25T00:43:04.022Z,6.63
2022-12-25T00:46:06.696Z,6.35
2022-12-25T00:49:08.909Z,6.70
2022-12-25T00:52:10.933Z,7.03
2022-12-25T00:55:12.988Z,6.88
2022-12-25T00:58:14.987Z,7.00
2022-12-25T01:01:17.556Z,7.57
2022-12-25T01:04:19.699Z,7.30
2022-12-25T01:07:22.820Z,7.90
2022-12-25T01:10:24.955Z,6.50
2022-12-25T01:13:27.456Z,6.38
2022-12-25T01:16:29.757Z,6.57
2022-12-25T01:19:31.912Z,7.82
2022-12-25T01:22:34.005Z,6.25
2022-12-25T01:25:36.052Z,6.75
2022-12-25T01:28:38.451Z,6.90
2022-12-25T01:31:41.078Z,7.63
2022-12-25T01:34:43.091Z,7.10
2022-12-25T01:37:45.040Z,6.57
2022-12-25T01:40:47.060Z,8.25
2022-12-25T01:43:59.770Z,8.10
2022-12-25T01:47:05.200Z,8.73
2022-12-25T01:50:07.597Z,7.47
2022-12-25T01:53:09.780Z,6.18
2022-12-25T01:56:11.948Z,6.75
2022-12-25T01:59:16.258Z,5.93
2022-12-25T02:02:18.458Z,6.50
2022-12-25T02:05:31.861Z,6.03
2022-12-25T02:08:34.191Z,6.07
2022-12-25T02:11:54.647Z,5.20
2022-12-25T02:15:04.985Z,5.47
2022-12-25T02:18:16.729Z,6.55
2022-12-25T02:21:26.100Z,5.60
2022-12-25T02:24:57.630Z,5.78
2022-12-25T02:28:05.850Z,5.70
2022-12-25T02:31:10.956Z,5.90
2022-12-25T02:34:17.688Z,5.47
2022-12-25T02:37:23.549Z,4.80
2022-12-25T02:40:29.558Z,5.67
2022-12-25T02:43:52.093Z,5.28
2022-12-25T02:47:13.227Z,5.15
2022-12-25T02:50:34.454Z,4.97
2022-12-25T02:53:58.035Z,5.97
2022-12-25T02:57:20.839Z,5.32
2022-12-25T03:00:41.639Z,5.30
2022-12-25T03:04:03.262Z,4.33
2022-12-25T03:07:05.264Z,4.70
2022-12-25T03:10:27.479Z,4.90
2022-12-25T03:13:33.081Z,4.97
2022-12-25T03:16:54.016Z,4.20
2022-12-25T03:20:14.484Z,5.28
2022-12-25T03:23:37.790Z,5.80
2022-12-25T03:26:55.319Z,4.97
2022-12-25T03:30:15.807Z,5.82
2022-12-25T03:33:45.823Z,6.65
2022-12-25T03:37:10.762Z,4.60
2022-12-25T03:40:50.388Z,6.63
2022-12-25T03:44:14.804Z,4.78
2022-12-25T03:47:45.746Z,6.13
2022-12-25T03:51:27.219Z,5.22
2022-12-25T03:54:49.648Z,4.70
2022-12-25T03:58:10.010Z,4.70
2022-12-25T04:01:31.068Z,6.72
2022-12-25T04:04:51.508Z,6.15
2022-12-25T04:08:12.039Z,5.53
2022-12-25T04:11:32.425Z,5.23
2022-12-25T04:14:52.821Z,4.93
2022-12-25T04:18:13.338Z,4.72
2022-12-25T04:21:33.856Z,5.13
2022-12-25T04:24:54.188Z,5.20
2022-12-25T04:28:19.335Z,5.78
2022-12-25T04:31:40.322Z,6.15
2022-12-25T04:35:00.798Z,5.95
2022-12-25T04:38:02.809Z,4.68
2022-12-25T04:41:05.134Z,6.15
2022-12-25T04:44:07.187Z,4.20
2022-12-25T04:47:11.455Z,5.57
2022-12-25T04:50:13.901Z,5.78
2022-12-25T04:53:16.103Z,5.07
2022-12-25T04:56:18.413Z,4.95
2022-12-25T04:59:20.429Z,6.65
2022-12-25T05:02:22.528Z,7.07
2022-12-25T05:05:24.802Z,6.90
2022-12-25T05:08:28.175Z,6.57
2022-12-25T05:11:30.224Z,6.32
2022-12-25T05:14:32.191Z,6.13
2022-12-25T05:17:34.241Z,5.53
2022-12-25T05:20:40.317Z,5.85
2022-12-25T05:23:51.426Z,4.67
2022-12-25T05:26:53.590Z,5.10
2022-12-25T05:29:55.690Z,4.57
2022-12-25T05:32:57.676Z,4.40
2022-12-25T05:36:03.610Z,5.05
2022-12-25T05:39:05.607Z,5.05
2022-12-25T05:42:07.584Z,5.53
2022-12-25T05:45:10.311Z,6.00
2022-12-25T05:48:12.341Z,4.93
2022-12-25T05:51:14.768Z,4.65
2022-12-25T05:54:17.039Z,4.80
2022-12-25T05:57:19.049Z,4.65
2022-12-25T06:00:21.115Z,4.40
2022-12-25T06:03:23.807Z,5.28
2022-12-25T06:06:26.010Z,5.05
2022-12-25T06:09:28.100Z,4.97
2022-12-25T06:12:30.114Z,5.38
2022-12-25T06:15:32.510Z,5.33
2022-12-25T06:18:35.588Z,5.28
2022-12-25T06:21:37.725Z,5.78
2022-12-25T06:24:40.788Z,5.43
2022-12-25T06:27:42.932Z,7.13
2022-12-25T06:30:44.910Z,6.70
2022-12-25T06:33:47.299Z,6.90
2022-12-25T06:36:49.301Z,7.60
2022-12-25T06:39:51.281Z,6.63
2022-12-25T06:42:53.380Z,6.20
2022-12-25T06:45:55.575Z,6.43
2022-12-25T06:48:58.065Z,5.28
2022-12-25T06:52:00.079Z,6.72
2022-12-25T06:55:02.680Z,6.47
2022-12-25T06:58:04.692Z,6.97
2022-12-25T07:01:15.260Z,7.68
2022-12-25T07:04:21.468Z,7.72
2022-12-25T07:07:23.747Z,7.93
2022-12-25T07:10:25.751Z,8.15
2022-12-25T07:13:27.719Z,6.13
2022-12-25T07:16:29.811Z,5.43
2022-12-25T07:19:31.843Z,6.40
2022-12-25T07:22:33.809Z,5.45
2022-12-25T07:25:37.537Z,6.83
2022-12-25T07:28:39.787Z,7.00
2022-12-25T07:31:41.876Z,7.88
2022-12-25T07:34:43.911Z,8.32
2022-12-25T07:37:45.938Z,9.68
2022-12-25T07:40:48.215Z,9.45
2022-12-25T07:43:51.609Z,9.63
2022-12-25T07:46:53.609Z,8.53
2022-12-25T07:49:55.641Z,10.65
2022-12-25T07:52:57.704Z,9.73
2022-12-25T07:56:03.723Z,10.77
2022-12-25T07:59:05.722Z,11.68
2022-12-25T08:02:09.248Z,11.10
2022-12-25T08:05:11.393Z,13.55
2022-12-25T08:08:13.456Z,11.07
2022-12-25T08:11:15.502Z,9.88
2022-12-25T08:14:17.510Z,9.27
2022-12-25T08:17:19.587Z,7.23
2022-12-25T08:20:21.574Z,8.65
2022-12-25T08:23:23.608Z,7.35
2022-12-25T08:26:25.556Z,7.97
2022-12-25T08:29:29.218Z,8.00
2022-12-25T08:32:34.556Z,9.40
2022-12-25T08:35:36.954Z,8.90
2022-12-25T08:38:39.810Z,10.07
2022-12-25T08:41:41.897Z,9.13
2022-12-25T08:44:43.917Z,8.82
2022-12-25T08:47:45.911Z,10.00
2022-12-25T08:50:51.865Z,9.48
2022-12-25T08:53:57.756Z,9.87
2022-12-25T08:57:03.004Z,12.73
2022-12-25T09:00:05.530Z,11.40
2022-12-25T09:03:07.698Z,8.55
2022-12-25T09:06:11.473Z,8.10
2022-12-25T09:09:13.523Z,8.53
2022-12-25T09:12:15.562Z,7.95
2022-12-25T09:15:17.644Z,12.75
2022-12-25T09:18:19.692Z,7.55
2022-12-25T09:21:21.744Z,7.03
2022-12-25T09:24:23.843Z,5.70
2022-12-25T09:27:25.860Z,5.50
2022-12-25T09:30:27.915Z,5.15
2022-12-25T09:33:30.213Z,5.03
2022-12-25T09:36:32.194Z,5.78
2022-12-25T09:39:34.289Z,5.27
2022-12-25T09:42:36.326Z,5.72
2022-12-25T09:45:39.130Z,6.32
2022-12-25T09:48:43.716Z,5.95
2022-12-25T09:51:48.206Z,6.10
2022-12-25T09:54:54.780Z,5.50
2022-12-25T09:57:58.096Z,4.55
2022-12-25T10:01:03.984Z,5.43
2022-12-25T10:04:05.981Z,4.63
2022-12-25T10:07:21.625Z,5.32
2022-12-25T10:10:29.040Z,4.73
2022-12-25T10:13:50.039Z,4.35
2022-12-25T10:16:52.009Z,4.57
2022-12-25T10:20:12.759Z,5.43
2022-12-25T10:23:17.805Z,4.32
2022-12-25T10:26:21.175Z,4.43
2022-12-25T10:29:23.239Z,5.00
2022-12-25T10:32:25.326Z,5.93
2022-12-25T10:35:28.739Z,4.50
2022-12-25T10:38:30.756Z,3.70
2022-12-25T10:41:38.742Z,4.00
2022-12-25T10:44:40.731Z,3.95
2022-12-25T10:47:42.980Z,5.20
2022-12-25T10:50:45.044Z,5.15
2022-12-25T10:53:47.063Z,4.50
2022-12-25T10:56:53.117Z,4.57
2022-12-25T10:59:56.560Z,4.57
2022-12-25T11:02:59.278Z,5.78
2022-12-25T11:06:02.963Z,4.78
2022-12-25T11:09:05.080Z,5.75
2022-12-25T11:12:07.232Z,5.20
2022-12-25T11:15:28.099Z,5.25
2022-12-25T11:18:33.614Z,5.05
2022-12-25T11:21:37.148Z,6.07
2022-12-25T11:24:39.136Z,5.03
2022-12-25T11:27:43.209Z,6.27
2022-12-25T11:30:47.369Z,5.57
2022-12-25T11:33:57.561Z,6.68
2022-12-25T11:37:00.880Z,5.38
2022-12-25T11:40:03.297Z,6.18
2022-12-25T11:43:12.494Z,4.70
2022-12-25T11:46:24.318Z,5.55
2022-12-25T11:49:26.419Z,5.57
2022-12-25T11:52:32.165Z,4.40
2022-12-25T11:55:41.615Z,4.20
2022-12-25T11:58:44.958Z,5.20
2022-12-25T12:01:49.023Z,5.43
2022-12-25T12:05:02.267Z,4.97
2022-12-25T12:08:05.330Z,4.75
2022-12-25T12:11:16.415Z,4.85
2022-12-25T12:14:21.178Z,5.37
2022-12-25T12:17:23.238Z,5.30
2022-12-25T12:20:28.094Z,9.32
2022-12-25T12:23:50.413Z,7.20
2022-12-25T12:27:06.415Z,6.45
2022-12-25T12:30:22.286Z,8.13
2022-12-25T12:33:25.898Z,6.07
2022-12-25T12:36:36.175Z,6.97
2022-12-25T12:39:39.524Z,7.78
2022-12-25T12:42:48.532Z,6.47
2022-12-25T12:45:55.386Z,7.07
2022-12-25T12:49:09.474Z,7.40
2022-12-25T12:52:20.386Z,7.05
2022-12-25T12:55:29.414Z,7.63
2022-12-25T12:58:33.693Z,5.85
2022-12-25T13:01:44.127Z,6.60
2022-12-25T13:05:06.480Z,6.05
2022-12-25T13:08:27.046Z,7.00
2022-12-25T13:11:30.293Z,7.28
2022-12-25T13:14:32.473Z,7.57
2022-12-25T13:17:35.096Z,5.37
2022-12-25T13:20:39.927Z,5.68
2022-12-25T13:23:41.983Z,8.05
2022-12-25T13:26:43.997Z,5.25
2022-12-25T13:29:46.410Z,5.68
2022-12-25T13:32:49.345Z,6.77
2022-12-25T13:35:51.612Z,12.38
2022-12-25T13:38:55.406Z,10.63
2022-12-25T13:42:06.241Z,10.95
2022-12-25T13:45:14.069Z,10.02
2022-12-25T13:48:16.229Z,11.90
2022-12-25T13:51:20.529Z,14.40
2022-12-25T13:54:24.284Z,10.73
2022-12-25T13:57:31.382Z,9.77
2022-12-25T14:00:36.538Z,9.07
2022-12-25T14:03:46.219Z,13.67
2022-12-25T14:06:48.989Z,10.20
2022-12-25T14:09:54.143Z,11.93
2022-12-25T14:12:56.839Z,13.63
2022-12-25T14:15:59.363Z,14.67
2022-12-25T14:19:02.443Z,33.90
2022-12-25T14:22:24.730Z,21.45
2022-12-25T14:25:31.384Z,19.90
2022-12-25T14:28:34.591Z,16.47
2022-12-25T14:31:38.589Z,19.52
2022-12-25T14:34:42.023Z,22.08
2022-12-25T14:37:44.119Z,27.03
2022-12-25T14:40:46.250Z,23.92
2022-12-25T14:43:52.037Z,25.52
2022-12-25T14:47:03.514Z,22.40
2022-12-25T14:50:36.555Z,28.80
2022-12-25T14:53:47.211Z,45.17
2022-12-25T14:56:50.314Z,46.08
2022-12-25T14:59:56.127Z,40.22
2022-12-25T15:02:58.797Z,38.80
2022-12-25T15:06:02.212Z,44.38
2022-12-25T15:09:09.183Z,44.42
2022-12-25T15:12:11.699Z,55.53
2022-12-25T15:15:13.713Z,50.00
2022-12-25T15:18:15.923Z,42.65
2022-12-25T15:21:29.279Z,48.47
2022-12-25T15:24:31.357Z,43.83
2022-12-25T15:27:33.308Z,50.30
2022-12-25T15:30:38.052Z,32.05
2022-12-25T15:33:44.147Z,22.58
2022-12-25T15:36:49.691Z,22.95
2022-12-25T15:39:51.761Z,21.53
2022-12-25T15:42:56.631Z,18.58
2022-12-25T15:45:58.890Z,18.60
2022-12-25T15:49:00.940Z,24.15
2022-12-25T15:52:03.921Z,27.23
2022-12-25T15:55:06.786Z,29.13
2022-12-25T15:58:12.396Z,29.48
2022-12-25T16:01:18.384Z,39.63
2022-12-25T16:04:21.527Z,50.25
2022-12-25T16:07:25.048Z,75.75
2022-12-25T16:10:27.191Z,37.13
2022-12-25T16:13:29.268Z,30.25
2022-12-25T16:16:31.367Z,29.42
2022-12-25T16:19:33.405Z,41.22
2022-12-25T16:22:40.129Z,35.93
2022-12-25T16:25:42.211Z,40.85
2022-12-25T16:28:44.248Z,42.53
2022-12-25T16:31:46.418Z,39.42
2022-12-25T16:34:48.635Z,40.17
2022-12-25T16:37:50.660Z,35.88
2022-12-25T16:40:55.561Z,62.30
2022-12-25T16:43:57.564Z,55.97
2022-12-25T16:46:59.624Z,64.13
2022-12-25T16:50:03.660Z,58.47
2022-12-25T16:53:05.763Z,59.50
2022-12-25T16:56:09.085Z,79.07
2022-12-25T16:59:11.308Z,232.45
2022-12-25T17:02:17.559Z,267.60
2022-12-25T17:05:19.745Z,193.73
2022-12-25T17:08:21.977Z,72.85
2022-12-25T17:11:27.448Z,67.35
2022-12-25T17:14:29.505Z,65.30
2022-12-25T17:17:31.533Z,54.60
2022-12-25T17:20:33.537Z,55.30
2022-12-25T17:23:36.998Z,53.42
2022-12-25T17:26:40.825Z,38.42
2022-12-25T17:29:44.055Z,29.92
2022-12-25T17:32:46.125Z,28.60
2022-12-25T17:35:48.091Z,55.00
2022-12-25T17:38:50.314Z,39.17
2022-12-25T17:41:52.589Z,59.63
2022-12-25T17:44:54.818Z,47.57
2022-12-25T17:47:57.618Z,36.17
2022-12-25T17:51:03.552Z,28.13
2022-12-25T17:54:05.611Z,23.85
2022-12-25T17:57:07.630Z,21.92
2022-12-25T18:00:09.829Z,21.88
2022-12-25T18:03:12.339Z,57.63
2022-12-25T18:06:16.261Z,33.90
2022-12-25T18:09:19.858Z,23.52
2022-12-25T18:12:22.526Z,22.58
2022-12-25T18:15:24.563Z,61.23
2022-12-25T18:18:26.627Z,65.82
2022-12-25T18:21:29.229Z,40.38
2022-12-25T18:24:31.244Z,30.45
2022-12-25T18:27:33.291Z,17.73
2022-12-25T18:30:38.590Z,17.80
2022-12-25T18:33:40.916Z,17.98
2022-12-25T18:36:44.832Z,32.97
2022-12-25T18:39:47.007Z,29.63
2022-12-25T18:42:53.742Z,32.75
2022-12-25T18:45:59.899Z,32.55
2022-12-25T18:49:02.105Z,24.67
2022-12-25T18:52:48.408Z,44.90
2022-12-25T18:55:27.807Z,21.77
2022-12-25T18:58:29.867Z,21.40
2022-12-25T19:01:32.042Z,27.73
2022-12-25T19:04:34.163Z,21.58
2022-12-25T19:07:36.696Z,20.50
2022-12-25T19:10:39.677Z,21.00
2022-12-25T19:13:42.321Z,22.83
2022-12-25T19:16:44.633Z,24.60
2022-12-25T19:19:46.861Z,26.42
2022-12-25T19:22:49.040Z,27.13
2022-12-25T19:25:51.210Z,28.33
2022-12-25T19:28:53.326Z,27.80
2022-12-25T19:31:55.459Z,32.75
2022-12-25T19:34:57.566Z,39.13
2022-12-25T19:37:59.525Z,36.15
2022-12-25T19:41:08.362Z,29.02
2022-12-25T19:44:10.839Z,26.48
2022-12-25T19:47:12.933Z,27.77
2022-12-25T19:50:15.064Z,25.37
2022-12-25T19:53:18.520Z,22.63
2022-12-25T19:56:20.514Z,21.15
2022-12-25T19:59:22.551Z,20.83
2022-12-25T20:02:24.665Z,32.63
2022-12-25T20:05:27.971Z,45.05
2022-12-25T20:08:30.039Z,28.13
2022-12-25T20:11:32.641Z,23.63
2022-12-25T20:14:34.694Z,20.63
2022-12-25T20:17:36.844Z,26.42
2022-12-25T20:20:38.998Z,33.37
2022-12-25T20:23:41.696Z,39.30
2022-12-25T20:26:47.678Z,47.70
2022-12-25T20:29:50.300Z,44.50
2022-12-25T20:32:52.313Z,42.13
2022-12-25T20:35:55.170Z,34.60
2022-12-25T20:38:57.421Z,26.75
2022-12-25T20:41:59.435Z,24.33
2022-12-25T20:45:02.217Z,24.65
2022-12-25T20:48:05.194Z,18.98
2022-12-25T20:51:08.283Z,19.03
2022-12-25T20:54:10.416Z,20.83
2022-12-25T20:57:12.428Z,16.95
2022-12-25T21:00:14.658Z,19.23
2022-12-25T21:03:16.772Z,16.67
2022-12-25T21:06:18.998Z,19.05
2022-12-25T21:09:22.360Z,20.98
2022-12-25T21:12:24.380Z,21.73
2022-12-25T21:15:26.414Z,23.17
2022-12-25T21:18:28.438Z,28.02
2022-12-25T21:21:31.015Z,29.63
2022-12-25T21:24:33.000Z,24.25
2022-12-25T21:27:35.081Z,28.67
2022-12-25T21:30:37.204Z,25.17
2022-12-25T21:33:51.467Z,24.65
2022-12-25T21:36:53.490Z,23.55
2022-12-25T21:39:55.614Z,20.77
2022-12-25T21:42:57.795Z,16.13
2022-12-25T21:46:07.224Z,18.55
2022-12-25T21:49:09.614Z,17.38
2022-12-25T21:52:12.251Z,19.63
2022-12-25T21:55:14.346Z,17.38
2022-12-25T21:58:16.354Z,17.55
2022-12-25T22:01:18.475Z,16.48
2022-12-25T22:04:22.028Z,15.93
2022-12-25T22:07:24.101Z,16.35
2022-12-25T22:10:26.189Z,14.60
2022-12-25T22:13:54.368Z,15.87
2022-12-25T22:17:15.398Z,15.25
2022-12-25T22:20:19.082Z,14.60
2022-12-25T22:23:21.862Z,16.00
2022-12-25T22:26:23.870Z,18.15
2022-12-25T22:29:25.958Z,17.77
2022-12-25T22:32:28.527Z,15.98
2022-12-25T22:35:30.543Z,15.57
2022-12-25T22:38:32.736Z,17.10
2022-12-25T22:41:34.820Z,18.75
2022-12-25T22:44:37.292Z,17.87
2022-12-25T22:47:39.508Z,17.50
2022-12-25T22:50:41.926Z,16.98
2022-12-25T22:53:43.896Z,17.17
2022-12-25T22:56:47.118Z,18.13
2022-12-25T22:59:51.053Z,17.45
2022-12-25T23:02:53.439Z,18.17
2022-12-25T23:05:56.279Z,17.52
2022-12-25T23:08:58.346Z,18.85
2022-12-25T23:12:00.370Z,16.92
2022-12-25T23:15:02.489Z,14.80
2022-12-25T23:18:23.136Z,16.33
2022-12-25T23:21:44.039Z,16.67
2022-12-25T23:25:04.511Z,16.77
2022-12-25T23:28:06.515Z,18.10
2022-12-25T23:31:09.519Z,19.15
2022-12-25T23:34:11.710Z,18.55
2022-12-25T23:37:13.804Z,19.17
2022-12-25T23:40:15.885Z,21.95
2022-12-25T23:43:17.881Z,21.42
2022-12-25T23:46:20.056Z,23.83
2022-12-25T23:49:23.179Z,22.90
2022-12-25T23:52:25.163Z,21.88
2022-12-25T23:55:27.217Z,22.00
2022-12-25T23:58:29.349Z,19.10
